createdAt,value
2023-02-11T00:01:38.075Z,1.00
2023-02-11T00:04:07.934Z,1.00
2023-02-11T00:06:37.455Z,1.10
2023-02-11T00:09:06.877Z,1.10
2023-02-11T00:11:35.612Z,1.10
2023-02-11T00:14:08.744Z,1.20
2023-02-11T00:21:35.456Z,1.20
2023-02-11T00:26:35.731Z,1.30
2023-02-11T00:29:06.164Z,1.20
2023-02-11T00:31:35.855Z,1.30
2023-02-11T00:34:06.955Z,1.30
2023-02-11T00:36:35.147Z,1.20
2023-02-11T00:41:32.576Z,1.20
2023-02-11T00:46:32.300Z,1.20
2023-02-11T00:51:29.991Z,1.20
2023-02-11T00:53:58.199Z,1.20
2023-02-11T01:03:56.146Z,1.20
2023-02-11T01:11:22.977Z,1.20
2023-02-11T01:13:52.045Z,1.20
2023-02-11T01:21:20.693Z,1.30
2023-02-11T01:31:15.128Z,1.40
2023-02-11T01:36:13.245Z,1.40
2023-02-11T01:38:44.389Z,1.40
2023-02-11T01:41:15.633Z,1.40
2023-02-11T01:43:47.451Z,1.40
2023-02-11T01:46:27.364Z,1.40
2023-02-11T01:49:00.980Z,1.40
2023-02-11T01:51:33.777Z,1.40
2023-02-11T01:54:27.598Z,1.30
2023-02-11T01:57:17.096Z,1.30
2023-02-11T01:59:52.864Z,1.30
2023-02-11T02:02:27.816Z,1.30
2023-02-11T02:05:09.108Z,1.30
2023-02-11T02:07:46.026Z,1.30
2023-02-11T02:10:22.683Z,1.30
2023-02-11T02:12:51.065Z,1.20
2023-02-11T02:15:30.980Z,1.20
2023-02-11T02:18:13.530Z,1.20
2023-02-11T02:21:30.726Z,1.30
2023-02-11T02:27:40.916Z,1.30
2023-02-11T02:30:34.913Z,1.30
2023-02-11T02:33:31.492Z,1.20
2023-02-11T02:36:13.752Z,1.20
2023-02-11T02:38:49.509Z,1.20
2023-02-11T02:41:22.291Z,1.20
2023-02-11T02:43:52.547Z,1.20
2023-02-11T02:46:24.307Z,1.10
2023-02-11T02:48:55.778Z,1.20
2023-02-11T02:52:13.730Z,1.20
2023-02-11T02:55:23.178Z,1.10
2023-02-11T02:58:21.231Z,1.10
2023-02-11T03:01:01.103Z,1.10
2023-02-11T03:03:42.818Z,1.10
2023-02-11T03:06:18.985Z,1.10
2023-02-11T03:08:53.067Z,1.10
2023-02-11T03:11:22.972Z,1.10
2023-02-11T03:13:53.659Z,0.90
2023-02-11T03:16:26.819Z,1.10
2023-02-11T03:19:03.106Z,1.10
2023-02-11T03:21:35.270Z,1.10
2023-02-11T03:24:09.388Z,1.10
2023-02-11T03:26:44.084Z,1.10
2023-02-11T03:29:19.565Z,0.70
2023-02-11T03:31:57.266Z,1.10
2023-02-11T03:34:33.274Z,1.10
2023-02-11T03:37:08.779Z,1.10
2023-02-11T03:39:41.996Z,1.10
2023-02-11T03:42:13.868Z,1.00
2023-02-11T03:44:49.079Z,1.00
2023-02-11T03:47:22.051Z,1.00
2023-02-11T03:49:52.819Z,1.00
2023-02-11T03:52:25.707Z,1.00
2023-02-11T03:54:59.143Z,1.00
2023-02-11T03:57:27.495Z,1.10
2023-02-11T03:59:58.116Z,1.10
2023-02-11T04:02:30.775Z,1.10
2023-02-11T04:04:59.913Z,1.10
2023-02-11T04:07:30.325Z,1.20
2023-02-11T04:24:51.272Z,1.00
2023-02-11T04:37:13.969Z,0.90
2023-02-11T04:42:12.795Z,0.90
2023-02-11T04:47:09.515Z,0.80
2023-02-11T04:54:35.324Z,0.80
2023-02-11T04:59:33.574Z,0.80
2023-02-11T05:09:27.638Z,0.70
2023-02-11T05:11:55.867Z,0.70
2023-02-11T05:16:54.084Z,0.80
2023-02-11T05:22:02.161Z,0.80
2023-02-11T05:32:00.819Z,0.90
2023-02-11T05:49:21.994Z,1.00
2023-02-11T05:59:16.403Z,3.00
2023-02-11T06:06:43.618Z,1.10
2023-02-11T06:09:12.292Z,1.00
2023-02-11T06:16:38.261Z,1.00
2023-02-11T06:24:13.767Z,1.00
2023-02-11T06:31:39.781Z,1.00
2023-02-11T06:39:08.065Z,0.90
2023-02-11T06:41:37.727Z,0.90
2023-02-11T06:58:59.928Z,1.10
2023-02-11T07:01:29.194Z,1.10
2023-02-11T07:06:29.045Z,1.10
2023-02-11T07:11:29.843Z,1.20
2023-02-11T07:14:05.245Z,1.20
2023-02-11T07:19:02.643Z,1.30
2023-02-11T07:31:29.970Z,1.50
2023-02-11T07:34:01.048Z,1.50
2023-02-11T07:36:31.827Z,1.50
2023-02-11T07:41:29.379Z,1.50
2023-02-11T07:43:59.294Z,1.60
2023-02-11T07:46:28.894Z,1.60
2023-02-11T07:48:57.411Z,1.60
2023-02-11T07:51:28.603Z,1.70
2023-02-11T07:53:59.063Z,1.80
2023-02-11T07:56:28.337Z,1.80
2023-02-11T07:58:57.811Z,1.90
2023-02-11T08:01:28.575Z,1.90
2023-02-11T08:03:58.162Z,2.00
2023-02-11T08:06:29.487Z,2.00
2023-02-11T08:11:28.984Z,2.20
2023-02-11T08:13:58.089Z,2.40
2023-02-11T08:16:30.804Z,2.60
2023-02-11T08:19:02.128Z,2.80
2023-02-11T08:23:59.750Z,3.30
2023-02-11T08:26:31.718Z,3.40
2023-02-11T08:29:00.602Z,3.60
2023-02-11T08:31:34.216Z,3.70
2023-02-11T08:36:34.157Z,3.80
2023-02-11T08:39:18.014Z,3.90
2023-02-11T08:46:47.387Z,4.20
2023-02-11T08:54:14.213Z,4.50
2023-02-11T08:59:17.647Z,4.50
2023-02-11T09:01:47.761Z,4.60
2023-02-11T09:04:16.281Z,4.60
2023-02-11T09:09:16.542Z,4.80
2023-02-11T09:11:45.620Z,4.90
2023-02-11T09:14:19.670Z,5.10
2023-02-11T09:16:50.079Z,5.30
2023-02-11T09:19:19.282Z,5.50
2023-02-11T09:21:47.602Z,5.80
2023-02-11T09:34:13.327Z,6.50
2023-02-11T09:36:42.761Z,6.50
2023-02-11T09:39:15.353Z,6.40
2023-02-11T09:42:20.179Z,6.50
2023-02-11T09:44:48.769Z,6.50
2023-02-11T09:47:29.177Z,6.60
2023-02-11T09:50:04.613Z,6.60
2023-02-11T09:52:42.676Z,6.60
2023-02-11T09:55:22.006Z,6.50
2023-02-11T10:00:23.646Z,6.50
2023-02-11T10:03:24.855Z,6.50
2023-02-11T10:06:29.586Z,6.50
2023-02-11T10:09:12.663Z,6.40
2023-02-11T10:11:50.704Z,6.50
2023-02-11T10:14:43.695Z,6.70
2023-02-11T10:17:26.425Z,6.90
2023-02-11T10:20:17.122Z,7.00
2023-02-11T10:22:50.338Z,7.20
2023-02-11T10:25:25.714Z,7.30
2023-02-11T10:27:57.904Z,7.40
2023-02-11T10:30:32.555Z,7.40
2023-02-11T10:33:13.474Z,7.40
2023-02-11T10:35:43.754Z,7.50
2023-02-11T10:38:13.646Z,7.60
2023-02-11T10:43:14.705Z,7.80
2023-02-11T10:45:47.252Z,7.90
2023-02-11T10:48:43.225Z,7.90
2023-02-11T10:51:20.455Z,8.10
2023-02-11T10:53:54.401Z,8.30
2023-02-11T10:56:27.668Z,8.50
2023-02-11T10:59:00.972Z,8.60
2023-02-11T11:01:44.587Z,8.80
2023-02-11T11:04:44.970Z,9.10
2023-02-11T11:07:24.107Z,9.30
2023-02-11T11:09:59.577Z,9.40
2023-02-11T11:12:36.304Z,9.50
2023-02-11T11:15:20.055Z,9.50
2023-02-11T11:20:24.768Z,9.40
2023-02-11T11:23:08.542Z,9.30
2023-02-11T11:25:42.626Z,9.40
2023-02-11T11:28:24.888Z,9.40
2023-02-11T11:30:55.685Z,9.40
2023-02-11T11:33:28.640Z,9.40
2023-02-11T11:36:01.530Z,9.40
2023-02-11T11:38:33.082Z,9.30
2023-02-11T11:41:26.927Z,9.20
2023-02-11T11:44:09.351Z,9.20
2023-02-11T11:46:42.167Z,9.10
2023-02-11T11:49:26.720Z,9.00
2023-02-11T11:52:10.414Z,8.90
2023-02-11T11:54:41.138Z,8.80
2023-02-11T11:57:17.412Z,8.70
2023-02-11T12:02:53.376Z,8.70
2023-02-11T12:05:28.836Z,8.70
2023-02-11T12:08:09.129Z,8.70
2023-02-11T12:11:10.604Z,8.70
2023-02-11T12:13:54.490Z,8.70
2023-02-11T12:16:37.194Z,8.80
2023-02-11T12:19:56.604Z,8.80
2023-02-11T12:22:40.034Z,8.80
2023-02-11T12:25:27.345Z,8.90
2023-02-11T12:28:12.567Z,8.90
2023-02-11T12:30:58.115Z,8.90
2023-02-11T12:33:50.739Z,8.90
2023-02-11T12:36:32.143Z,8.90
2023-02-11T12:39:19.045Z,8.90
2023-02-11T12:42:51.521Z,8.90
2023-02-11T12:45:36.008Z,8.90
2023-02-11T12:48:39.577Z,8.80
2023-02-11T12:51:23.199Z,8.70
2023-02-11T12:54:19.478Z,8.60
2023-02-11T12:56:55.353Z,8.50
2023-02-11T12:59:41.257Z,8.50
2023-02-11T13:02:22.810Z,8.50
2023-02-11T13:04:58.275Z,8.50
2023-02-11T13:07:34.193Z,8.40
2023-02-11T13:10:26.072Z,8.30
2023-02-11T13:13:16.550Z,8.30
2023-02-11T13:15:48.631Z,8.30
2023-02-11T13:18:48.238Z,8.30
2023-02-11T13:21:45.099Z,8.30
2023-02-11T13:24:25.226Z,8.30
2023-02-11T13:27:06.249Z,8.30
2023-02-11T13:30:06.199Z,8.20
2023-02-11T13:33:06.534Z,8.20
2023-02-11T13:35:36.984Z,8.10
2023-02-11T13:38:18.559Z,8.10
2023-02-11T13:40:58.582Z,8.10
2023-02-11T13:43:29.442Z,7.90
2023-02-11T13:46:00.920Z,8.00
2023-02-11T13:48:32.662Z,7.90
2023-02-11T13:51:04.573Z,7.90
2023-02-11T13:53:48.886Z,7.90
2023-02-11T13:56:30.087Z,7.90
2023-02-11T14:02:23.669Z,7.90
2023-02-11T14:05:40.444Z,7.80
2023-02-11T14:08:42.901Z,7.80
2023-02-11T14:11:51.146Z,7.80
2023-02-11T14:14:24.438Z,7.90
2023-02-11T14:17:30.877Z,7.80
2023-02-11T14:22:32.743Z,7.90
2023-02-11T14:25:03.071Z,7.90
2023-02-11T14:27:42.042Z,7.90
2023-02-11T14:30:50.689Z,7.90
2023-02-11T14:33:50.255Z,7.90
2023-02-11T14:36:46.405Z,7.80
2023-02-11T14:39:26.479Z,7.80
2023-02-11T14:41:55.756Z,7.70
2023-02-11T14:44:30.934Z,7.70
2023-02-11T14:46:59.590Z,7.70
2023-02-11T14:49:32.508Z,7.60
2023-02-11T14:52:07.901Z,7.60
2023-02-11T14:54:36.846Z,7.60
2023-02-11T14:57:12.709Z,7.50
2023-02-11T14:59:58.855Z,7.50
2023-02-11T15:02:33.992Z,7.50
2023-02-11T15:05:26.053Z,7.50
2023-02-11T15:07:57.336Z,7.40
2023-02-11T15:10:33.950Z,7.40
2023-02-11T15:13:04.547Z,7.40
2023-02-11T15:15:36.468Z,7.40
2023-02-11T15:18:06.593Z,7.40
2023-02-11T15:20:35.842Z,7.40
2023-02-11T15:23:10.025Z,7.40
2023-02-11T15:25:45.717Z,7.40
2023-02-11T15:28:24.269Z,7.40
2023-02-11T15:31:02.583Z,7.40
2023-02-11T15:33:32.277Z,7.40
2023-02-11T15:36:03.403Z,7.40
2023-02-11T15:38:31.792Z,7.40
2023-02-11T15:41:02.413Z,7.40
2023-02-11T15:43:46.237Z,7.40
2023-02-11T15:46:19.890Z,7.40
2023-02-11T15:48:51.597Z,7.40
2023-02-11T15:51:25.120Z,7.40
2023-02-11T15:53:58.409Z,7.40
2023-02-11T15:56:32.856Z,7.40
2023-02-11T15:59:12.981Z,7.30
2023-02-11T16:01:43.174Z,7.40
2023-02-11T16:04:19.211Z,7.30
2023-02-11T16:09:31.257Z,7.30
2023-02-11T16:12:03.480Z,7.30
2023-02-11T16:14:36.973Z,7.30
2023-02-11T16:17:09.671Z,7.30
2023-02-11T16:19:44.779Z,7.30
2023-02-11T16:22:18.873Z,7.30
2023-02-11T16:24:50.982Z,7.20
2023-02-11T16:27:24.979Z,7.20
2023-02-11T16:29:53.817Z,7.30
2023-02-11T16:32:26.334Z,7.20
2023-02-11T16:34:57.828Z,7.20
2023-02-11T16:37:26.674Z,7.20
2023-02-11T16:39:55.278Z,7.20
2023-02-11T16:42:23.588Z,7.20
2023-02-11T16:44:51.862Z,7.20
2023-02-11T16:47:27.504Z,7.20
2023-02-11T16:49:57.211Z,7.10
2023-02-11T16:52:26.461Z,7.20
2023-02-11T16:57:28.820Z,7.10
2023-02-11T17:02:31.400Z,7.10
2023-02-11T17:05:02.751Z,7.10
2023-02-11T17:07:31.461Z,7.00
2023-02-11T17:10:00.307Z,7.00
2023-02-11T17:19:55.642Z,6.90
2023-02-11T17:27:21.199Z,6.90
2023-02-11T17:37:16.862Z,6.70
2023-02-11T17:39:45.046Z,6.70
2023-02-11T17:44:44.318Z,6.80
2023-02-11T17:47:12.703Z,6.80
2023-02-11T17:49:41.300Z,6.70
2023-02-11T17:52:10.148Z,6.70
2023-02-11T17:54:39.811Z,6.80
2023-02-11T18:07:02.743Z,6.70
2023-02-11T18:09:31.027Z,6.70
2023-02-11T18:12:00.590Z,6.80
2023-02-11T18:24:29.431Z,6.70
2023-02-11T18:29:27.825Z,6.70
2023-02-11T18:31:57.681Z,6.70
2023-02-11T18:41:56.799Z,6.60
2023-02-11T18:46:55.140Z,6.60
2023-02-11T18:49:23.409Z,6.60
2023-02-11T18:54:20.725Z,6.60
2023-02-11T18:56:49.003Z,6.60
2023-02-11T19:01:47.436Z,6.60
2023-02-11T19:04:19.716Z,6.60
2023-02-11T19:06:49.880Z,6.60
2023-02-11T19:09:21.142Z,6.60
2023-02-11T19:14:24.872Z,6.60
2023-02-11T19:16:59.041Z,6.60
2023-02-11T19:19:31.119Z,6.60
2023-02-11T19:22:01.046Z,6.60
2023-02-11T19:24:30.618Z,6.60
2023-02-11T19:27:01.262Z,6.60
2023-02-11T19:32:02.459Z,6.60
2023-02-11T19:34:30.824Z,6.60
2023-02-11T19:41:58.572Z,6.60
2023-02-11T19:46:55.388Z,6.60
2023-02-11T19:49:26.290Z,6.60
2023-02-11T19:51:57.351Z,6.70
2023-02-11T19:54:27.286Z,6.60
2023-02-11T19:56:55.788Z,6.60
2023-02-11T20:01:53.752Z,6.60
2023-02-11T20:04:25.016Z,6.60
2023-02-11T20:14:19.677Z,6.60
2023-02-11T20:19:22.366Z,6.50
2023-02-11T20:21:55.595Z,6.50
2023-02-11T20:24:26.720Z,6.50
2023-02-11T20:29:25.664Z,6.40
2023-02-11T20:34:23.210Z,6.40
2023-02-11T20:36:53.058Z,6.40
2023-02-11T20:39:22.919Z,6.40
2023-02-11T20:41:52.302Z,6.40
2023-02-11T20:44:22.579Z,6.40
2023-02-11T20:46:52.013Z,6.40
2023-02-11T20:49:23.650Z,6.40
2023-02-11T20:51:53.789Z,6.40
2023-02-11T20:54:24.158Z,6.40
2023-02-11T21:01:55.272Z,6.40
2023-02-11T21:04:26.791Z,6.40
2023-02-11T21:06:58.655Z,6.40
2023-02-11T21:09:30.561Z,6.30
2023-02-11T21:14:29.865Z,6.30
2023-02-11T21:19:27.404Z,6.30
2023-02-11T21:22:00.466Z,6.30
2023-02-11T21:29:29.273Z,6.30
2023-02-11T21:34:26.168Z,6.20
2023-02-11T21:44:21.567Z,6.30
2023-02-11T21:49:19.633Z,6.20
2023-02-11T21:54:18.706Z,6.30
2023-02-11T22:01:47.047Z,6.20
2023-02-11T22:04:15.319Z,6.20
2023-02-11T22:09:13.039Z,6.30
2023-02-11T22:11:42.596Z,6.20
2023-02-11T22:14:11.108Z,6.20
2023-02-11T22:21:37.421Z,6.10
2023-02-11T22:29:04.783Z,6.10
2023-02-11T22:31:35.530Z,6.10
2023-02-11T22:34:05.750Z,6.10
2023-02-11T22:36:36.791Z,6.10
2023-02-11T22:39:08.776Z,6.00
2023-02-11T22:41:38.284Z,6.00
2023-02-11T22:44:08.302Z,6.00
2023-02-11T22:46:36.649Z,6.00
2023-02-11T22:49:05.575Z,5.90
2023-02-11T22:54:03.871Z,5.90
2023-02-11T22:56:34.779Z,5.80
2023-02-11T22:59:06.192Z,5.80
2023-02-11T23:01:36.498Z,5.70
2023-02-11T23:04:07.910Z,5.70
2023-02-11T23:06:36.738Z,5.70
2023-02-11T23:09:05.666Z,5.70
2023-02-11T23:11:34.470Z,5.70
2023-02-11T23:16:35.748Z,5.70
2023-02-11T23:19:07.232Z,5.70
2023-02-11T23:21:37.997Z,5.60
2023-02-11T23:24:11.566Z,5.70
2023-02-11T23:26:42.545Z,5.70
2023-02-11T23:31:45.878Z,5.70
2023-02-11T23:34:17.108Z,5.70
2023-02-11T23:39:15.548Z,5.70
2023-02-11T23:44:13.311Z,5.70
2023-02-11T23:46:42.900Z,5.80
